Time;durP1;ratioP1;P1;durP2;ratioP2;P2;SDS_P1;SDS_P2;PMS_P1;PMS_P2;Temp;Humidity;BMP_temperature;BMP_pressure;BME280_temperature;BME280_humidity;BME280_pressure;Samples;Min_cycle;Max_cycle;Signal;HPM_P1;HPM_P2
2023/10/06 00:00:53;;;;;;;2.97;2.43;;;19.00;70.10;19.80;101787.00;;;;5089030;28;20604;-48
2023/10/06 00:03:20;;;;;;;3.10;2.40;;;19.00;70.10;19.80;101783.00;;;;5087876;28;20583;-46
2023/10/06 00:05:48;;;;;;;2.93;2.63;;;19.00;70.10;19.80;101780.00;;;;5087956;28;20205;-46
2023/10/06 00:08:17;;;;;;;2.80;2.50;;;19.00;70.20;19.80;101764.00;;;;5082613;28;20245;-46
2023/10/06 00:10:51;;;;;;;2.87;2.60;;;19.00;70.30;19.80;101790.00;;;;5085910;28;20677;-46
2023/10/06 00:13:24;;;;;;;3.03;2.73;;;18.90;70.20;19.80;101793.00;;;;5081883;28;20186;-46
2023/10/06 00:15:51;;;;;;;4.17;2.50;;;18.90;70.20;19.70;101793.00;;;;5086228;28;20191;-45
2023/10/06 00:18:23;;;;;;;2.47;2.27;;;18.90;70.30;19.70;101789.00;;;;5070341;28;20180;-46
2023/10/06 00:20:56;;;;;;;3.03;2.60;;;18.90;71.10;19.70;101792.00;;;;5086714;28;20266;-46
2023/10/06 00:23:22;;;;;;;2.60;2.40;;;18.80;70.20;19.70;101785.00;;;;5088201;28;20246;-47
2023/10/06 00:25:54;;;;;;;2.57;2.37;;;18.90;70.30;19.70;101805.00;;;;5088134;28;20183;-46
2023/10/06 00:28:22;;;;;;;2.93;2.63;;;18.90;70.30;19.70;101798.00;;;;5087866;28;20708;-46
2023/10/06 00:30:57;;;;;;;2.93;2.60;;;18.80;70.20;19.70;101814.00;;;;5088043;28;20187;-47
2023/10/06 00:33:37;;;;;;;3.23;2.40;;;18.90;70.30;19.70;101818.00;;;;5084622;28;20199;-46
2023/10/06 00:36:11;;;;;;;2.53;2.33;;;18.90;70.40;19.70;101807.00;;;;5084360;28;20292;-46
2023/10/06 00:38:38;;;;;;;2.67;2.47;;;18.90;70.60;19.70;101819.00;;;;5086815;28;20177;-46
2023/10/06 00:41:07;;;;;;;2.80;2.47;;;18.80;70.50;19.60;101799.00;;;;5071264;28;20205;-46
2023/10/06 00:43:39;;;;;;;2.60;2.40;;;18.80;70.50;19.60;101797.00;;;;5087849;28;20578;-47
2023/10/06 00:46:09;;;;;;;2.80;2.60;;;18.80;70.50;19.60;101789.00;;;;5087860;28;20690;-47
2023/10/06 00:48:42;;;;;;;2.60;2.40;;;18.80;70.50;19.60;101790.00;;;;5087659;28;20181;-47
2023/10/06 00:51:19;;;;;;;3.00;2.50;;;18.80;70.40;19.60;101796.00;;;;5087990;28;20557;-48
2023/10/06 00:53:50;;;;;;;2.60;2.40;;;18.80;71.10;19.60;101797.00;;;;5087556;28;20258;-46
2023/10/06 00:56:16;;;;;;;2.60;2.40;;;18.80;70.30;19.60;101793.00;;;;5087716;28;20660;-48
2023/10/06 00:58:42;;;;;;;2.60;2.40;;;18.70;70.20;19.60;101791.00;;;;5087470;28;20263;-47
2023/10/06 01:01:12;;;;;;;2.37;2.17;;;18.80;70.40;19.60;101797.00;;;;5079370;28;20276;-47
2023/10/06 01:03:39;;;;;;;2.50;2.30;;;18.80;70.30;19.60;101774.00;;;;5090256;28;20228;-48
2023/10/06 01:06:23;;;;;;;2.63;2.43;;;18.80;70.30;19.60;101781.00;;;;5091187;28;20657;-48
2023/10/06 01:08:55;;;;;;;3.00;2.27;;;18.70;70.10;19.50;101776.00;;;;5093391;28;20173;-47
2023/10/06 01:11:26;;;;;;;2.37;2.17;;;18.70;70.30;19.50;101775.00;;;;5091488;28;20173;-46
2023/10/06 01:13:56;;;;;;;2.67;2.43;;;18.70;70.20;19.50;101777.00;;;;5091347;28;20769;-47
2023/10/06 01:16:36;;;;;;;2.40;2.20;;;18.70;70.20;19.50;101771.00;;;;5090453;28;20246;-46
2023/10/06 01:19:15;;;;;;;2.53;2.33;;;18.70;70.10;19.50;101776.00;;;;5086009;28;20571;-46
2023/10/06 01:21:46;;;;;;;3.00;2.37;;;18.70;70.40;19.50;101762.00;;;;5094088;28;20645;-46
2023/10/06 01:24:24;;;;;;;2.63;2.40;;;18.70;70.50;19.50;101770.00;;;;5091816;28;20250;-46
2023/10/06 01:26:53;;;;;;;3.23;2.33;;;18.70;70.50;19.40;101758.00;;;;5090175;28;20184;-46
2023/10/06 01:29:22;;;;;;;4.80;2.40;;;18.70;70.60;19.50;101755.00;;;;5089883;28;20231;-47
2023/10/06 01:31:49;;;;;;;4.60;2.63;;;18.70;70.70;19.50;101749.00;;;;5090803;28;20187;-47
2023/10/06 01:34:15;;;;;;;2.90;2.50;;;18.70;70.60;19.50;101747.00;;;;5091076;28;20192;-46
2023/10/06 01:36:45;;;;;;;2.53;2.20;;;18.70;70.60;19.50;101754.00;;;;5090844;28;20749;-46
2023/10/06 01:39:16;;;;;;;2.67;2.40;;;18.70;70.60;19.50;101746.00;;;;5091097;28;20182;-46
2023/10/06 01:41:46;;;;;;;3.83;2.40;;;18.70;70.50;19.50;101745.00;;;;5090860;28;20291;-46
2023/10/06 01:44:15;;;;;;;3.60;2.30;;;18.70;70.50;19.40;101751.00;;;;5090755;28;20201;-46
2023/10/06 01:46:42;;;;;;;2.50;2.30;;;18.70;70.70;19.40;101744.00;;;;5082449;28;20179;-46
2023/10/06 01:49:11;;;;;;;2.57;2.37;;;18.60;70.50;19.40;101752.00;;;;5090785;28;20204;-46
2023/10/06 01:51:40;;;;;;;2.60;2.40;;;18.60;70.40;19.40;101738.00;;;;5090770;28;20263;-46
2023/10/06 01:54:07;;;;;;;2.63;2.40;;;18.60;70.40;19.40;101725.00;;;;5090644;28;20201;-46
2023/10/06 01:56:35;;;;;;;2.53;2.30;;;18.60;70.40;19.40;101725.00;;;;5090690;28;20504;-46
2023/10/06 01:59:04;;;;;;;2.50;2.30;;;18.60;70.30;19.40;101736.00;;;;5090341;28;20192;-46
2023/10/06 02:01:30;;;;;;;2.90;2.40;;;18.60;70.30;19.40;101701.00;;;;5089597;28;20250;-47
2023/10/06 02:03:55;;;;;;;2.27;2.07;;;18.60;70.30;19.40;101725.00;;;;5090431;28;20197;-46
2023/10/06 02:06:21;;;;;;;2.50;2.30;;;18.60;70.20;19.40;101731.00;;;;5090537;28;20169;-46
2023/10/06 02:08:50;;;;;;;2.57;2.13;;;18.60;70.10;19.40;101728.00;;;;5090216;28;20205;-46
2023/10/06 02:11:17;;;;;;;2.47;2.27;;;18.60;70.30;19.40;101727.00;;;;5085209;28;20234;-47
2023/10/06 02:13:43;;;;;;;2.47;2.27;;;18.60;70.30;19.30;101741.00;;;;5081702;28;20737;-47
2023/10/06 02:16:09;;;;;;;2.33;2.13;;;18.60;70.30;19.30;101735.00;;;;5090163;28;20211;-46
2023/10/06 02:18:37;;;;;;;2.57;2.27;;;18.60;70.30;19.30;101737.00;;;;5090298;28;20185;-46
2023/10/06 02:21:22;;;;;;;2.40;2.20;;;18.60;70.30;19.30;101734.00;;;;5090047;28;20270;-46
2023/10/06 02:23:49;;;;;;;2.60;2.20;;;18.50;70.30;19.30;101732.00;;;;5087453;28;20682;-47
2023/10/06 02:26:15;;;;;;;2.30;2.10;;;18.50;70.10;19.30;101721.00;;;;5089379;28;20230;-46
2023/10/06 02:28:49;;;;;;;2.83;2.30;;;18.60;70.30;19.30;101729.00;;;;5089739;28;20173;-46
2023/10/06 02:31:16;;;;;;;2.60;2.27;;;18.50;71.00;19.30;101730.00;;;;5090270;28;20195;-46
2023/10/06 02:33:46;;;;;;;2.30;2.10;;;18.50;70.30;19.30;101731.00;;;;5086305;28;20189;-46
2023/10/06 02:36:21;;;;;;;2.40;2.20;;;18.50;70.30;19.30;101741.00;;;;5090003;28;20678;-46
2023/10/06 02:38:47;;;;;;;2.33;2.13;;;18.50;70.30;19.30;101740.00;;;;5089869;28;20204;-46
2023/10/06 02:41:18;;;;;;;2.60;2.40;;;18.50;70.20;19.30;101732.00;;;;5081448;28;20200;-46
2023/10/06 02:43:51;;;;;;;2.40;2.20;;;18.50;70.30;19.20;101730.00;;;;5089666;28;20265;-46
2023/10/06 02:46:21;;;;;;;2.40;2.20;;;18.50;70.20;19.20;101740.00;;;;5089631;28;20172;-46
2023/10/06 02:48:50;;;;;;;2.37;2.17;;;18.50;70.30;19.20;101736.00;;;;5089220;28;20173;-46
2023/10/06 02:52:15;;;;;;;2.63;2.00;;;18.40;70.20;19.20;101741.00;;;;5088385;28;20196;-46
2023/10/06 02:56:46;;;;;;;2.20;2.00;;;18.40;70.20;19.20;101729.00;;;;5071973;28;20207;-46
2023/10/06 02:59:34;;;;;;;2.23;2.03;;;18.40;70.10;19.20;101731.00;;;;5078145;28;20173;-46
2023/10/06 03:02:06;;;;;;;2.43;2.13;;;18.40;70.20;19.20;101723.00;;;;5091585;28;20201;-46
2023/10/06 03:04:36;;;;;;;2.40;2.20;;;18.40;70.30;19.20;101722.00;;;;5091579;28;20196;-46
2023/10/06 03:07:03;;;;;;;2.50;2.20;;;18.40;70.30;19.20;101734.00;;;;5090737;28;20655;-47
2023/10/06 03:09:43;;;;;;;2.63;2.10;;;18.40;70.30;19.10;101728.00;;;;5090768;28;20181;-46
2023/10/06 03:12:14;;;;;;;3.90;2.17;;;18.40;70.50;19.10;101723.00;;;;5075718;28;20180;-47
2023/10/06 03:14:40;;;;;;;4.83;2.40;;;18.40;70.30;19.10;101715.00;;;;5092109;28;20672;-47
2023/10/06 03:17:10;;;;;;;2.57;2.37;;;18.40;70.30;19.10;101717.00;;;;5092967;28;20259;-46
2023/10/06 03:19:40;;;;;;;3.40;2.33;;;18.40;70.70;19.10;101719.00;;;;5090376;28;20638;-47
2023/10/06 03:22:09;;;;;;;3.67;2.30;;;18.40;70.50;19.10;101725.00;;;;5090686;28;20197;-46
2023/10/06 03:24:58;;;;;;;3.53;2.20;;;18.40;70.40;19.10;101728.00;;;;5090192;28;20258;-46
2023/10/06 03:27:24;;;;;;;4.43;2.00;;;18.30;70.20;19.10;101726.00;;;;5090325;28;20177;-46
2023/10/06 03:29:56;;;;;;;4.67;2.27;;;18.30;70.20;19.10;101730.00;;;;5090068;28;20205;-46
2023/10/06 03:32:32;;;;;;;3.40;2.33;;;18.30;70.20;19.10;101741.00;;;;5089919;28;20185;-47
2023/10/06 03:35:45;;;;;;;2.47;2.27;;;18.30;70.20;19.10;101740.00;;;;5089780;28;20204;-47
2023/10/06 03:37:53;;;;;;;4.50;2.40;;;18.20;70.10;19.10;101737.00;;;;5077841;28;20255;-47
2023/10/06 03:40:23;;;;;;;2.83;2.20;;;18.30;70.20;19.00;101721.00;;;;5089823;28;20192;-48
2023/10/06 03:42:50;;;;;;;3.63;2.23;;;18.30;70.20;19.00;101727.00;;;;5089841;28;20173;-47
2023/10/06 03:45:26;;;;;;;2.40;2.20;;;18.30;70.20;19.00;101710.00;;;;5086129;28;20221;-47
2023/10/06 03:48:08;;;;;;;2.60;2.30;;;18.30;70.10;19.00;101724.00;;;;5089865;28;20520;-48
2023/10/06 03:50:38;;;;;;;3.50;2.53;;;18.30;70.10;19.00;101724.00;;;;5089726;28;20173;-46
2023/10/06 03:53:08;;;;;;;3.23;2.10;;;18.30;70.10;19.00;101727.00;;;;5089784;28;20184;-47
2023/10/06 03:55:39;;;;;;;2.30;2.10;;;18.30;70.10;19.00;101729.00;;;;5089727;28;20663;-46
2023/10/06 03:58:09;;;;;;;2.40;2.20;;;18.20;70.10;19.00;101729.00;;;;5076959;28;20181;-46
2023/10/06 04:00:47;;;;;;;5.50;2.50;;;18.20;70.10;19.00;101731.00;;;;5075657;28;20286;-47
2023/10/06 04:03:17;;;;;;;3.37;2.10;;;18.20;70.10;19.00;101725.00;;;;5084776;28;20196;-46
2023/10/06 04:05:50;;;;;;;2.77;2.43;;;18.20;70.10;19.00;101730.00;;;;5083599;28;20185;-47
2023/10/06 04:08:23;;;;;;;3.07;2.40;;;18.20;70.10;19.00;101730.00;;;;5088824;28;20222;-47
2023/10/06 04:10:53;;;;;;;5.50;2.50;;;18.20;70.30;19.00;101728.00;;;;5083310;28;20173;-47
2023/10/06 04:13:20;;;;;;;5.43;2.50;;;18.20;70.10;19.00;101738.00;;;;5088913;28;20193;-46
2023/10/06 04:15:49;;;;;;;6.13;2.67;;;18.20;70.20;18.90;101737.00;;;;5087647;28;20215;-47
2023/10/06 04:18:17;;;;;;;4.30;2.40;;;18.20;70.10;19.00;101734.00;;;;5088988;28;20191;-47
2023/10/06 04:20:47;;;;;;;8.03;2.60;;;18.20;70.10;18.90;101731.00;;;;5088919;28;20210;-47
2023/10/06 04:23:13;;;;;;;3.70;2.40;;;18.20;70.10;18.90;101735.00;;;;5088642;28;20200;-47
2023/10/06 04:25:40;;;;;;;4.50;2.33;;;18.20;70.20;18.90;101729.00;;;;5088759;28;20188;-47
2023/10/06 04:28:16;;;;;;;7.33;2.57;;;18.20;70.40;19.00;101726.00;;;;5088604;28;20183;-47
2023/10/06 04:30:46;;;;;;;6.00;2.70;;;18.20;70.60;18.90;101729.00;;;;5082245;28;20192;-47
2023/10/06 04:33:14;;;;;;;5.63;2.60;;;18.10;70.50;18.90;101725.00;;;;5085050;28;20686;-47
2023/10/06 04:35:55;;;;;;;4.53;2.57;;;18.10;70.40;18.90;101730.00;;;;5072470;28;20184;-47
2023/10/06 04:38:24;;;;;;;5.67;2.67;;;18.10;70.40;18.90;101722.00;;;;5092615;28;20669;-47
2023/10/06 04:40:49;;;;;;;3.77;2.60;;;18.10;70.50;18.90;101705.00;;;;5091821;28;20208;-47
2023/10/06 04:43:17;;;;;;;4.83;2.67;;;18.20;70.60;18.90;101710.00;;;;5092273;28;20606;-47
2023/10/06 04:45:44;;;;;;;4.73;2.53;;;18.10;70.40;18.90;101700.00;;;;5092779;28;20258;-47
2023/10/06 04:48:10;;;;;;;4.70;2.40;;;18.10;70.40;18.90;101705.00;;;;5092671;28;20177;-47
2023/10/06 04:50:36;;;;;;;3.70;2.50;;;18.10;70.30;18.90;101705.00;;;;5092415;28;20670;-46
2023/10/06 04:53:05;;;;;;;3.97;2.27;;;18.10;70.30;18.90;101693.00;;;;5091285;28;20268;-47
2023/10/06 04:55:31;;;;;;;4.30;2.50;;;18.10;70.20;18.80;101683.00;;;;5093284;28;20271;-47
2023/10/06 04:57:57;;;;;;;6.17;2.63;;;18.10;70.30;18.90;101692.00;;;;5095237;28;20212;-47
2023/10/06 05:00:27;;;;;;;4.57;2.77;;;18.00;70.20;18.80;101698.00;;;;5089884;28;20251;-47
2023/10/06 05:02:52;;;;;;;3.50;2.37;;;18.10;70.20;18.80;101686.00;;;;5089167;28;20195;-51
2023/10/06 05:05:19;;;;;;;5.90;2.60;;;18.10;70.20;18.80;101691.00;;;;5091312;28;20181;-47
2023/10/06 05:07:46;;;;;;;4.20;2.80;;;18.00;70.20;18.80;101687.00;;;;5092440;28;20553;-47
2023/10/06 05:10:12;;;;;;;4.10;2.40;;;18.00;70.10;18.80;101696.00;;;;5097685;28;20621;-47
2023/10/06 05:12:38;;;;;;;2.80;2.60;;;18.00;70.10;18.80;101688.00;;;;5092524;28;20655;-47
2023/10/06 05:15:07;;;;;;;2.67;2.40;;;18.00;70.10;18.80;101693.00;;;;5089154;28;20189;-47
2023/10/06 05:17:34;;;;;;;4.57;2.40;;;18.00;70.10;18.80;101689.00;;;;5088383;28;20180;-47
2023/10/06 05:20:01;;;;;;;3.67;2.17;;;18.00;70.10;18.80;101690.00;;;;5091500;28;20272;-47
2023/10/06 05:22:27;;;;;;;3.53;2.40;;;17.90;70.10;18.80;101681.00;;;;5090924;28;20349;-48
2023/10/06 05:24:52;;;;;;;3.93;2.50;;;18.00;70.20;18.80;101690.00;;;;5091954;28;20279;-47
2023/10/06 05:27:19;;;;;;;3.20;2.30;;;18.00;70.10;18.70;101691.00;;;;5090677;28;20180;-47
2023/10/06 05:29:46;;;;;;;2.60;2.27;;;17.90;70.10;18.70;101682.00;;;;5092130;28;20273;-48
2023/10/06 05:32:13;;;;;;;3.50;2.40;;;17.90;70.10;18.70;101685.00;;;;5084763;28;20177;-48
2023/10/06 05:34:40;;;;;;;2.63;2.30;;;17.90;70.20;18.70;101693.00;;;;5091644;28;20193;-47
2023/10/06 05:37:08;;;;;;;3.67;2.43;;;17.90;70.20;18.70;101690.00;;;;5090419;28;20314;-48
2023/10/06 05:39:35;;;;;;;2.50;2.23;;;17.90;70.30;18.70;101688.00;;;;5091715;28;20192;-47
2023/10/06 05:42:02;;;;;;;3.13;2.50;;;17.90;70.20;18.70;101606.00;;;;5091286;28;20919;-47
2023/10/06 05:44:28;;;;;;;3.13;2.60;;;17.90;70.30;18.70;101685.00;;;;5091376;28;20211;-47
2023/10/06 05:46:54;;;;;;;2.60;2.20;;;17.90;70.30;18.70;101686.00;;;;5091488;28;20184;-47
2023/10/06 05:49:21;;;;;;;2.60;2.40;;;17.90;70.30;18.60;101683.00;;;;5090629;28;20199;-47
2023/10/06 05:51:49;;;;;;;3.60;2.40;;;17.80;70.10;18.60;101677.00;;;;5091150;28;20185;-47
2023/10/06 05:54:21;;;;;;;4.07;2.40;;;17.80;70.40;18.60;101686.00;;;;5090961;28;20201;-46
2023/10/06 05:56:52;;;;;;;2.80;2.50;;;17.80;70.30;18.60;101682.00;;;;5091483;28;20177;-48
2023/10/06 05:59:19;;;;;;;2.67;2.47;;;17.80;70.30;18.60;101679.00;;;;5090364;28;20700;-46
2023/10/06 06:01:46;;;;;;;3.13;2.40;;;17.80;70.30;18.60;101692.00;;;;5084661;28;20209;-47
2023/10/06 06:04:12;;;;;;;2.53;2.30;;;17.80;70.30;18.60;101694.00;;;;5090998;28;20219;-46
2023/10/06 06:06:38;;;;;;;2.93;2.40;;;17.80;70.20;18.60;101697.00;;;;5091461;28;20173;-47
2023/10/06 06:09:14;;;;;;;2.60;2.33;;;17.80;70.10;18.60;101699.00;;;;5091133;28;20169;-46
2023/10/06 06:11:40;;;;;;;2.73;2.40;;;17.80;70.10;18.60;101698.00;;;;5087475;28;20176;-46
2023/10/06 06:14:05;;;;;;;3.63;2.70;;;17.80;70.10;18.50;101706.00;;;;5081752;28;20192;-46
2023/10/06 06:16:31;;;;;;;3.00;2.23;;;17.80;70.10;18.50;101702.00;;;;5091078;28;20193;-46
2023/10/06 06:18:58;;;;;;;2.87;2.57;;;17.70;70.00;18.50;101712.00;;;;5090568;28;20183;-47
2023/10/06 06:21:24;;;;;;;2.57;2.37;;;17.80;70.00;18.50;101707.00;;;;5089073;28;20223;-46
2023/10/06 06:23:51;;;;;;;3.03;2.50;;;17.80;70.00;18.50;101706.00;;;;5090633;28;20241;-45
2023/10/06 06:26:17;;;;;;;2.70;2.40;;;17.70;70.00;18.50;101711.00;;;;5090822;28;20225;-46
2023/10/06 06:28:44;;;;;;;2.77;2.50;;;17.70;70.00;18.50;101714.00;;;;5090474;28;20177;-47
2023/10/06 06:31:19;;;;;;;2.77;2.43;;;17.70;70.00;18.50;101702.00;;;;5083828;28;20190;-46
2023/10/06 06:33:47;;;;;;;2.40;2.20;;;17.70;70.00;18.50;101710.00;;;;5090058;28;20249;-46
2023/10/06 06:36:13;;;;;;;2.30;2.10;;;17.70;70.00;18.50;101715.00;;;;5090807;28;20196;-46
2023/10/06 06:38:39;;;;;;;3.10;2.60;;;17.70;70.00;18.50;101722.00;;;;5090652;28;20211;-46
2023/10/06 06:41:08;;;;;;;2.67;2.47;;;17.70;70.00;18.50;101726.00;;;;5090728;28;20257;-46
2023/10/06 06:43:34;;;;;;;2.60;2.40;;;17.70;70.00;18.50;101728.00;;;;5089879;28;20692;-46
2023/10/06 06:46:00;;;;;;;2.47;2.23;;;17.70;70.00;18.50;101731.00;;;;5088784;28;20177;-46
2023/10/06 06:48:26;;;;;;;2.60;2.40;;;17.70;70.00;18.40;101735.00;;;;5087351;28;20183;-46
2023/10/06 06:50:52;;;;;;;2.60;2.40;;;17.60;70.00;18.40;101729.00;;;;5092031;28;20181;-45
2023/10/06 06:53:18;;;;;;;3.20;2.60;;;17.60;70.10;18.40;101742.00;;;;5088801;28;20223;-46
2023/10/06 06:55:44;;;;;;;2.87;2.33;;;17.60;70.20;18.40;101745.00;;;;5090321;28;20169;-46
2023/10/06 06:58:11;;;;;;;3.57;2.23;;;17.60;70.10;18.40;101739.00;;;;5089909;28;20250;-46
2023/10/06 07:00:39;;;;;;;2.63;2.40;;;17.60;70.20;18.40;101742.00;;;;5083748;28;20193;-46
2023/10/06 07:03:05;;;;;;;2.50;2.30;;;17.60;70.20;18.40;101739.00;;;;5088405;28;20643;-46
2023/10/06 07:05:31;;;;;;;3.43;2.37;;;17.60;70.30;18.40;101731.00;;;;5092422;28;20184;-47
2023/10/06 07:07:56;;;;;;;2.50;2.30;;;17.60;70.30;18.40;101740.00;;;;5090085;28;20646;-46
2023/10/06 07:10:22;;;;;;;4.93;2.90;;;17.50;70.20;18.40;101735.00;;;;5090194;28;20161;-46
2023/10/06 07:12:50;;;;;;;2.67;2.33;;;17.60;70.90;18.40;101737.00;;;;5089901;28;20204;-46
2023/10/06 07:15:20;;;;;;;2.30;2.10;;;17.50;71.00;18.30;101733.00;;;;5073936;28;20192;-46
2023/10/06 07:17:50;;;;;;;2.83;2.47;;;17.50;70.90;18.30;101730.00;;;;5083858;28;20200;-47
2023/10/06 07:20:18;;;;;;;2.57;2.37;;;17.50;71.00;18.30;101726.00;;;;5085189;28;20212;-47
2023/10/06 07:22:48;;;;;;;3.40;2.37;;;17.50;70.80;18.30;101744.00;;;;5088297;28;20230;-46
2023/10/06 07:25:15;;;;;;;2.50;2.30;;;17.50;70.70;18.30;101751.00;;;;5089058;28;20799;-46
2023/10/06 07:27:46;;;;;;;2.60;2.40;;;17.60;71.00;18.30;101740.00;;;;5086848;28;20601;-46
2023/10/06 07:30:14;;;;;;;2.60;2.40;;;17.60;70.90;18.30;101739.00;;;;5089478;28;20219;-46
2023/10/06 07:32:44;;;;;;;2.80;2.50;;;17.50;70.60;18.30;101740.00;;;;5080542;28;20185;-46
2023/10/06 07:35:15;;;;;;;2.97;2.30;;;17.50;70.50;18.30;101743.00;;;;5088540;28;20216;-46
2023/10/06 07:37:49;;;;;;;2.80;2.30;;;17.50;70.50;18.30;101705.00;;;;5085821;28;20234;-46
2023/10/06 07:40:18;;;;;;;3.90;2.53;;;17.60;70.70;18.30;101743.00;;;;5088781;28;20184;-46
2023/10/06 07:42:49;;;;;;;2.60;2.40;;;17.50;70.70;18.30;101743.00;;;;5085728;28;20804;-46
2023/10/06 07:45:16;;;;;;;2.53;2.33;;;17.50;70.60;18.30;101738.00;;;;5089461;28;20212;-45
2023/10/06 07:47:42;;;;;;;2.57;2.33;;;17.50;70.50;18.30;101737.00;;;;5089560;28;20185;-46
2023/10/06 07:50:09;;;;;;;3.00;2.50;;;17.50;70.50;18.30;101737.00;;;;5087978;28;20253;-46
2023/10/06 07:52:38;;;;;;;2.50;2.30;;;17.50;70.50;18.30;101730.00;;;;5088523;28;20200;-47
2023/10/06 07:55:05;;;;;;;2.70;2.50;;;17.50;70.60;18.30;101733.00;;;;5089021;28;20196;-45
2023/10/06 07:57:36;;;;;;;2.53;2.30;;;17.50;70.70;18.30;101739.00;;;;5085257;28;20298;-46
2023/10/06 08:00:06;;;;;;;3.00;2.40;;;17.50;70.70;18.30;101731.00;;;;5083529;28;20659;-46
2023/10/06 08:02:39;;;;;;;2.43;2.23;;;17.50;70.60;18.30;101739.00;;;;5088777;28;20683;-46
2023/10/06 08:05:11;;;;;;;4.67;2.60;;;17.50;70.60;18.30;101731.00;;;;5088572;28;20200;-45
2023/10/06 08:07:42;;;;;;;3.53;2.30;;;17.50;70.60;18.30;101727.00;;;;5089227;28;20643;-45
2023/10/06 08:10:13;;;;;;;3.80;2.40;;;17.50;70.50;18.30;101734.00;;;;5084423;28;20184;-45
2023/10/06 08:12:44;;;;;;;3.47;2.50;;;17.50;70.50;18.30;101722.00;;;;5088427;28;20230;-45
2023/10/06 08:15:11;;;;;;;5.53;2.57;;;17.50;70.50;18.30;101727.00;;;;5088047;28;20201;-46
2023/10/06 08:17:37;;;;;;;2.97;2.50;;;17.50;70.60;18.30;101725.00;;;;5088780;28;20181;-46
2023/10/06 08:20:05;;;;;;;3.97;2.40;;;17.50;70.60;18.30;101726.00;;;;5088998;28;20233;-45
2023/10/06 08:22:33;;;;;;;2.63;2.43;;;17.50;70.60;18.30;101727.00;;;;5088371;28;20337;-46
2023/10/06 08:25:05;;;;;;;3.03;2.60;;;17.50;70.60;18.30;101725.00;;;;5082186;28;20205;-46
2023/10/06 08:27:39;;;;;;;2.60;2.40;;;17.50;70.50;18.30;101726.00;;;;5088833;28;20173;-45
2023/10/06 08:30:16;;;;;;;3.07;2.53;;;17.50;70.60;18.30;101727.00;;;;5084926;28;20199;-46
2023/10/06 08:32:43;;;;;;;4.33;2.87;;;17.50;70.50;18.30;101733.00;;;;5087291;28;20208;-46
2023/10/06 08:35:13;;;;;;;4.43;2.87;;;17.50;70.60;18.30;101734.00;;;;5084603;28;20280;-46
2023/10/06 08:37:46;;;;;;;3.77;2.77;;;17.50;70.50;18.30;101721.00;;;;5088538;28;20654;-46
2023/10/06 08:40:19;;;;;;;2.50;2.30;;;17.50;70.60;18.30;101730.00;;;;5088327;28;20181;-45
2023/10/06 08:42:51;;;;;;;3.10;2.33;;;17.50;70.60;18.30;101728.00;;;;5086877;28;20188;-47
2023/10/06 08:45:21;;;;;;;3.27;2.60;;;17.50;70.60;18.30;101726.00;;;;5084511;28;20232;-46
2023/10/06 08:48:01;;;;;;;3.50;2.50;;;17.50;70.70;18.30;101657.00;;;;5089729;28;20202;-45
2023/10/06 08:50:33;;;;;;;4.43;2.40;;;17.50;70.70;18.30;101733.00;;;;5088720;28;20204;-46
2023/10/06 08:53:01;;;;;;;4.17;2.63;;;17.50;70.70;18.30;101723.00;;;;5087682;28;20237;-45
2023/10/06 08:55:30;;;;;;;2.73;2.53;;;17.50;70.70;18.30;101713.00;;;;5089063;28;20188;-45
2023/10/06 08:57:58;;;;;;;2.77;2.57;;;17.50;70.80;18.30;101717.00;;;;5088685;28;20550;-46
2023/10/06 09:00:24;;;;;;;3.00;2.70;;;17.50;70.70;18.30;101713.00;;;;5092210;28;20188;-46
2023/10/06 09:02:53;;;;;;;3.87;2.60;;;17.50;70.90;18.30;101727.00;;;;5087989;28;20181;-46
2023/10/06 09:05:19;;;;;;;2.73;2.47;;;17.50;70.90;18.30;101723.00;;;;5087932;28;20196;-46
2023/10/06 09:07:57;;;;;;;2.73;2.37;;;17.50;70.90;18.30;101726.00;;;;5082511;28;20554;-45
2023/10/06 09:10:23;;;;;;;5.37;2.77;;;17.50;71.00;18.30;101729.00;;;;5084533;28;20251;-46
2023/10/06 09:13:16;;;;;;;5.80;2.60;;;17.50;70.90;18.30;101714.00;;;;5081231;28;20186;-45
2023/10/06 09:15:43;;;;;;;2.73;2.47;;;17.50;71.00;18.30;101725.00;;;;5080444;28;20181;-45
2023/10/06 09:18:27;;;;;;;3.47;2.70;;;17.50;71.10;18.30;101723.00;;;;5087955;28;20625;-45
2023/10/06 09:20:54;;;;;;;2.73;2.53;;;17.50;71.10;18.30;101721.00;;;;5088375;28;20209;-45
2023/10/06 09:23:30;;;;;;;3.70;2.70;;;17.50;71.30;18.30;101715.00;;;;5088409;28;20270;-46
2023/10/06 09:25:57;;;;;;;3.63;2.57;;;17.50;71.30;18.30;101714.00;;;;5092104;28;20571;-46
2023/10/06 09:28:23;;;;;;;4.07;2.50;;;17.50;71.30;18.40;101727.00;;;;5091966;28;20188;-46
2023/10/06 09:30:57;;;;;;;3.00;2.50;;;17.50;71.40;18.30;101716.00;;;;5090562;28;20269;-46
2023/10/06 09:33:35;;;;;;;3.60;2.70;;;17.50;71.50;18.40;101710.00;;;;5091298;28;20218;-46
2023/10/06 09:36:11;;;;;;;2.90;2.60;;;17.50;71.50;18.40;101706.00;;;;5091519;28;20261;-45
2023/10/06 09:38:38;;;;;;;2.90;2.60;;;17.60;71.80;18.40;101711.00;;;;5091823;28;20679;-46
2023/10/06 09:41:09;;;;;;;3.20;2.70;;;17.50;71.80;18.40;101715.00;;;;5090595;28;20212;-45
2023/10/06 09:43:38;;;;;;;4.27;2.70;;;17.50;71.80;18.40;101714.00;;;;5091034;28;20201;-46
2023/10/06 09:46:11;;;;;;;3.97;2.97;;;17.50;71.90;18.40;101713.00;;;;5091199;28;20209;-45
2023/10/06 09:48:38;;;;;;;6.37;2.80;;;17.50;71.90;18.40;101695.00;;;;5085216;28;20217;-45
2023/10/06 09:51:08;;;;;;;6.00;2.70;;;17.50;72.30;18.40;101693.00;;;;5091358;28;20192;-45
2023/10/06 09:53:38;;;;;;;3.33;2.57;;;17.60;72.90;18.40;101692.00;;;;5090798;28;20257;-45
2023/10/06 09:56:12;;;;;;;6.43;3.20;;;17.50;72.70;18.40;101708.00;;;;5091149;28;20184;-46
2023/10/06 09:58:45;;;;;;;8.43;3.60;;;17.60;73.10;18.40;101703.00;;;;5091253;28;20185;-46
2023/10/06 10:01:13;;;;;;;8.63;3.37;;;17.60;72.90;18.40;101710.00;;;;5090701;28;20670;-46
2023/10/06 10:03:39;;;;;;;11.57;3.00;;;17.60;73.40;18.40;101693.00;;;;5073788;28;20197;-47
2023/10/06 10:06:04;;;;;;;7.97;3.33;;;17.60;73.40;18.40;101692.00;;;;5078944;28;20734;-46
2023/10/06 10:08:35;;;;;;;8.23;3.20;;;17.60;73.30;18.50;101695.00;;;;5082797;28;20627;-46
2023/10/06 10:11:05;;;;;;;6.60;3.17;;;17.70;73.50;18.50;101690.00;;;;5090773;28;20192;-46
2023/10/06 10:13:37;;;;;;;11.67;3.57;;;17.60;73.90;18.50;101692.00;;;;5085530;28;20201;-46
2023/10/06 10:16:36;;;;;;;9.37;3.37;;;17.70;74.00;18.60;101684.00;;;;5073432;28;20659;-46
2023/10/06 10:19:07;;;;;;;7.17;3.37;;;17.60;73.90;18.60;101676.00;;;;5089595;28;20263;-45
2023/10/06 10:21:34;;;;;;;7.63;3.00;;;17.70;73.70;18.60;101678.00;;;;5089123;28;20213;-46
2023/10/06 10:24:05;;;;;;;5.40;2.87;;;17.70;74.00;18.70;101671.00;;;;5089246;28;20239;-46
2023/10/06 10:26:34;;;;;;;5.80;3.00;;;17.70;74.00;18.70;101672.00;;;;5090063;28;20180;-46
2023/10/06 10:29:17;;;;;;;6.00;3.00;;;17.70;74.00;18.70;101671.00;;;;5086612;28;20185;-46
2023/10/06 10:31:57;;;;;;;6.17;3.17;;;17.80;74.30;18.70;101666.00;;;;5090396;28;20654;-46
2023/10/06 10:34:25;;;;;;;4.63;2.73;;;17.80;74.30;18.70;101659.00;;;;5090517;28;20204;-47
2023/10/06 10:37:01;;;;;;;4.07;2.93;;;17.80;74.20;18.80;101657.00;;;;5089460;28;20192;-46
2023/10/06 10:39:29;;;;;;;5.57;2.70;;;17.80;74.20;18.80;101665.00;;;;5090834;28;20192;-47
2023/10/06 10:41:58;;;;;;;5.87;2.87;;;17.80;74.10;18.80;101661.00;;;;5089896;28;20213;-47
2023/10/06 10:44:24;;;;;;;5.73;2.90;;;17.90;74.30;18.80;101659.00;;;;5091332;28;20227;-47
2023/10/06 10:46:52;;;;;;;7.20;2.83;;;17.90;74.70;18.90;101660.00;;;;5089083;28;20201;-46
2023/10/06 10:49:22;;;;;;;5.90;3.00;;;17.90;74.80;18.90;101652.00;;;;5089238;28;20184;-46
2023/10/06 10:51:56;;;;;;;7.37;2.60;;;17.90;75.10;18.90;101652.00;;;;5081086;28;20189;-46
2023/10/06 10:54:44;;;;;;;8.93;3.03;;;18.00;75.20;18.90;101651.00;;;;5078266;28;20646;-46
2023/10/06 10:57:14;;;;;;;8.37;3.13;;;18.10;75.30;19.00;101634.00;;;;5091924;28;20196;-47
2023/10/06 11:00:12;;;;;;;8.03;3.10;;;18.10;75.30;19.00;101635.00;;;;5090511;28;20750;-46
2023/10/06 11:02:49;;;;;;;6.43;2.80;;;18.20;75.40;19.00;101633.00;;;;5055412;28;20274;-46